»·PEaware :: CGVZB LIMJ-LOWI

CGVZB :: LIMJ-LOWI

FLIGHT INFORMATION

Flight Status: Arrived
Operator: Unknown
More flights by this operator :: More flights under this callsign
Pilot: Alan S. (10569)
Aircraft: AIRBUS A330
(A330)
More flights by this aircraft type
Origin: LIMJ Sestri
Italy
Destination: LOWI Innsbruck
Austria
More flights between these airports :: More routes between these airports
Route: GEN7K GEN M858 SRN L615 OSKOR M985 TAGIP T876 EKPIS M726 BRENO BREN3B LOWI/08
File this flight plan on PilotEdge
Remarks:
Altitude:
(Current/Filed)
35,000ft
Speed:
(Current/Filed)
460kts
Departed: 03-Mar-17 08:11 PM
Arrived: 03-Mar-17 09:07 PM
Distance/Time
Traveled:
200nm/0:56
Distance/Time
To Go:
Arrived

Flight Plot

Page will automatically refresh every two minutes.

Flight plan parsing failed; only flown route is shown


Map Options




Map Legend


Flown Route
Filed Route
Departure Airport
Arrival Airport
Navaid (VOR, NDB)
Fix

Horizontal Profiles

Position Reports

Time Latitude Longitude Heading Altitude Ground
Speed
03-Mar-17 19:59 44.415001 8.845615 321 20ft 0kts
03-Mar-17 20:00 44.415001 8.845615 321 20ft 0kts
03-Mar-17 20:01 44.414622 8.846047 320 21ft 0kts
03-Mar-17 20:02 44.414523 8.846407 221 21ft 0kts
03-Mar-17 20:03 44.414523 8.846407 221 21ft 0kts
03-Mar-17 20:04 44.414523 8.846407 221 21ft 0kts
03-Mar-17 20:05 44.414523 8.846407 221 21ft 0kts
03-Mar-17 20:06 44.414032 8.845663 231 21ft 9kts
03-Mar-17 20:07 44.413616 8.841242 285 21ft 17kts
03-Mar-17 20:08 44.415087 8.833741 284 21ft 21kts
03-Mar-17 20:09 44.416610 8.825843 275 20ft 14kts
03-Mar-17 20:10 44.416152 8.825017 195 21ft 0kts
03-Mar-17 20:11 44.415060 8.826114 105 21ft 23kts
03-Mar-17 20:12 44.406038 8.874540 104 1495ft 167kts
03-Mar-17 20:13 44.374734 8.922860 172 2911ft 236kts
03-Mar-17 20:14 44.321854 8.866876 226 6016ft 264kts
03-Mar-17 20:15 44.264270 8.813679 187 9640ft 256kts
03-Mar-17 20:16 44.192924 8.805873 190 12399ft 268kts
03-Mar-17 20:17 44.146102 8.743523 280 15267ft 302kts
03-Mar-17 20:18 44.225981 8.714456 35 16881ft 396kts
03-Mar-17 20:19 44.286673 8.853466 57 18286ft 448kts
03-Mar-17 20:20 44.367558 8.990670 51 20985ft 469kts
03-Mar-17 20:21 44.482834 9.064162 354 23356ft 486kts
03-Mar-17 20:22 44.618578 9.042045 348 25584ft 502kts
03-Mar-17 20:23 44.759225 9.013049 348 27755ft 517kts
03-Mar-17 20:24 44.902728 8.983113 348 29561ft 535kts
03-Mar-17 20:25 45.051374 8.977001 0 31997ft 538kts
03-Mar-17 20:26 45.192178 8.987302 0 34157ft 534kts
03-Mar-17 20:27 45.335974 8.998171 0 35037ft 525kts
03-Mar-17 20:28 45.481243 9.009131 0 34914ft 531kts
03-Mar-17 20:29 45.602165 9.100773 63 34945ft 502kts
03-Mar-17 20:30 45.643514 9.281659 93 34906ft 488kts
03-Mar-17 20:31 45.644787 9.471421 95 34923ft 484kts
03-Mar-17 20:32 45.643920 9.651094 96 34915ft 484kts
03-Mar-17 20:33 45.642699 9.835125 96 34908ft 483kts
03-Mar-17 20:34 45.641102 10.026374 96 34916ft 484kts
03-Mar-17 20:35 45.639190 10.217557 96 34920ft 483kts
03-Mar-17 20:36 45.636953 10.408946 96 34918ft 483kts
03-Mar-17 20:37 45.634391 10.600703 96 34912ft 483kts
03-Mar-17 20:38 45.631954 10.765046 97 34846ft 482kts
03-Mar-17 20:39 45.628841 10.954194 97 34835ft 483kts
03-Mar-17 20:40 45.659704 11.135520 45 34843ft 511kts
03-Mar-17 20:41 45.788560 11.162945 326 34843ft 487kts
03-Mar-17 20:42 45.908926 11.070805 327 34826ft 502kts
03-Mar-17 20:43 46.047651 11.044824 358 34834ft 518kts
03-Mar-17 20:44 46.175330 11.051118 359 34080ft 527kts
03-Mar-17 20:45 46.310831 11.058690 359 31941ft 523kts
03-Mar-17 20:46 46.453161 11.095860 26 30344ft 533kts
03-Mar-17 20:47 46.584395 11.195520 28 27799ft 531kts
03-Mar-17 20:48 46.710532 11.294843 28 25078ft 504kts
03-Mar-17 20:49 46.836706 11.358683 4 22493ft 476kts
03-Mar-17 20:50 46.962744 11.345652 324 19584ft 444kts
03-Mar-17 20:51 47.036827 11.223703 295 17250ft 383kts
03-Mar-17 20:52 47.088933 11.091620 293 15230ft 364kts
03-Mar-17 20:53 47.130394 10.983246 293 13737ft 339kts
03-Mar-17 20:54 47.170295 10.878008 292 13970ft 306kts
03-Mar-17 20:55 47.212147 10.766954 293 12974ft 301kts
03-Mar-17 20:56 47.251117 10.663059 292 12971ft 290kts
03-Mar-17 20:57 47.307332 10.594126 15 12936ft 286kts
03-Mar-17 20:58 47.320755 10.671946 125 13025ft 207kts
03-Mar-17 20:59 47.302671 10.754730 104 12970ft 220kts
03-Mar-17 21:00 47.301369 10.848668 95 11468ft 230kts
03-Mar-17 21:01 47.304489 10.933385 94 10834ft 200kts
03-Mar-17 21:02 47.307976 11.014952 94 9305ft 199kts
03-Mar-17 21:03 47.304731 11.093318 120 7300ft 182kts
03-Mar-17 21:04 47.281210 11.156616 119 5443ft 169kts
03-Mar-17 21:05 47.261618 11.217329 108 4265ft 165kts
03-Mar-17 21:06 47.253464 11.279301 83 2776ft 147kts
03-Mar-17 21:07 47.259420 11.336518 78 1910ft 138kts
03-Mar-17 21:08 47.260796 11.349145 79 1909ft 26kts
03-Mar-17 21:09 47.259220 11.352882 190 1909ft 6kts
03-Mar-17 21:10 47.258675 11.350534 210 1909ft 4kts

Navigation Log

Ident Type
Flight plan parsing failed, navigation log unavailable